createdAt,value
2022-12-22T03:39:55.132Z,96851.66
2022-12-22T03:42:40.819Z,96835.16
2022-12-22T03:45:28.343Z,96836.16
2022-12-22T03:47:56.296Z,96839.38
2022-12-22T03:50:24.201Z,96831.59
2022-12-22T03:52:52.223Z,96821.34
2022-12-22T03:55:21.476Z,96820.47
2022-12-22T03:57:49.324Z,96817.50
2022-12-22T04:00:18.332Z,96824.41
2022-12-22T04:02:46.215Z,96817.06
2022-12-22T04:05:14.532Z,96819.94
2022-12-22T04:07:42.379Z,96819.56
2022-12-22T04:10:28.848Z,96817.38
2022-12-22T04:12:57.939Z,96813.22
2022-12-22T04:15:27.972Z,96807.94
2022-12-22T04:17:55.945Z,96805.63
2022-12-22T04:20:27.370Z,96804.22
2022-12-22T04:22:55.176Z,96812.63
2022-12-22T04:25:24.124Z,96798.88
2022-12-22T04:27:52.243Z,96790.53
2022-12-22T04:30:21.970Z,96786.91
2022-12-22T04:32:50.055Z,96776.56
2022-12-22T04:35:18.608Z,96784.56
2022-12-22T04:37:47.002Z,96780.56
2022-12-22T04:40:15.203Z,96774.09
2022-12-22T04:42:43.234Z,96776.56
2022-12-22T04:45:12.546Z,96769.50
2022-12-22T04:47:42.368Z,96762.13
2022-12-22T04:50:10.995Z,96766.31
2022-12-22T04:52:40.180Z,96760.66
2022-12-22T04:55:09.401Z,96760.44
2022-12-22T04:57:40.772Z,96753.97
2022-12-22T05:00:10.576Z,96759.13
2022-12-22T05:02:39.694Z,96752.19
2022-12-22T05:05:10.395Z,96747.50
2022-12-22T05:07:38.602Z,96750.47
2022-12-22T05:10:07.435Z,96746.09
2022-12-22T05:12:53.319Z,96743.56
2022-12-22T05:15:21.705Z,96742.69
2022-12-22T05:17:50.351Z,96730.50
2022-12-22T05:20:20.251Z,96737.00
2022-12-22T05:22:49.355Z,96728.09
2022-12-22T05:25:18.204Z,96736.69
2022-12-22T05:27:46.200Z,96731.22
2022-12-22T05:30:15.418Z,96740.03
2022-12-22T05:32:43.654Z,96733.72
2022-12-22T05:35:12.012Z,96726.41
2022-12-22T05:37:42.248Z,96729.59
2022-12-22T05:40:12.190Z,96733.38
2022-12-22T05:42:40.834Z,96731.72
2022-12-22T05:45:13.434Z,96735.88
2022-12-22T05:47:42.418Z,96726.78
2022-12-22T05:50:12.098Z,96730.06
2022-12-22T05:52:42.504Z,96726.47
2022-12-22T05:55:11.178Z,96735.44
2022-12-22T05:57:39.950Z,96725.34
2022-12-22T06:00:10.780Z,96725.63
2022-12-22T06:02:39.280Z,96725.78
2022-12-22T06:05:08.441Z,96711.41
2022-12-22T06:07:36.960Z,96713.47
2022-12-22T06:10:12.327Z,96711.75
2022-12-22T06:12:41.478Z,96706.97
2022-12-22T06:15:10.909Z,96707.66
2022-12-22T06:17:44.690Z,96703.16
2022-12-22T06:20:14.637Z,96700.56
2022-12-22T06:22:43.120Z,96697.03
2022-12-22T06:25:18.151Z,96695.22
2022-12-22T06:27:47.737Z,96666.34
2022-12-22T06:30:16.786Z,96702.09
2022-12-22T06:32:45.464Z,96703.09
2022-12-22T06:35:13.795Z,96696.56
2022-12-22T06:37:42.466Z,96695.91
2022-12-22T06:40:13.040Z,96692.44
2022-12-22T06:43:04.116Z,96695.56
2022-12-22T06:45:34.220Z,96692.09
2022-12-22T06:48:02.640Z,96689.13
2022-12-22T06:50:30.686Z,96684.03
2022-12-22T06:52:58.845Z,96659.06
2022-12-22T06:55:28.364Z,96681.56
2022-12-22T06:57:56.982Z,96667.28
2022-12-22T07:00:25.349Z,96684.78
2022-12-22T07:02:54.033Z,96666.19
2022-12-22T07:05:23.862Z,96668.44
2022-12-22T07:07:52.516Z,96665.22
2022-12-22T07:10:40.777Z,96658.56
2022-12-22T07:13:20.682Z,96659.22
2022-12-22T07:15:57.553Z,96651.91
2022-12-22T07:18:28.642Z,96646.81
2022-12-22T07:20:56.897Z,96648.25
2022-12-22T07:23:25.295Z,96653.50
2022-12-22T07:25:54.003Z,96651.94
2022-12-22T07:28:23.760Z,96661.81
2022-12-22T07:30:53.012Z,96655.75
2022-12-22T07:33:21.726Z,96661.78
2022-12-22T07:35:50.248Z,96653.22
2022-12-22T07:38:18.716Z,96649.75
2022-12-22T07:40:51.899Z,96650.53
2022-12-22T07:43:19.786Z,96655.44
2022-12-22T07:45:49.994Z,96661.66
2022-12-22T07:48:35.848Z,96666.44
2022-12-22T07:51:06.818Z,96652.28
2022-12-22T07:53:35.817Z,96647.31
2022-12-22T07:56:05.869Z,96639.84
2022-12-22T07:58:34.113Z,96627.09
2022-12-22T08:01:03.568Z,96631.41
2022-12-22T08:03:31.774Z,96632.03
2022-12-22T08:06:00.336Z,96633.31
2022-12-22T08:08:28.646Z,96631.72
2022-12-22T08:10:56.930Z,96610.69
2022-12-22T08:13:25.469Z,96622.28
2022-12-22T08:15:54.153Z,96622.34
2022-12-22T08:18:23.999Z,96624.72
2022-12-22T08:20:53.338Z,96612.31
2022-12-22T08:23:21.650Z,96630.53
2022-12-22T08:25:55.365Z,96625.94
2022-12-22T08:28:24.191Z,96618.56
2022-12-22T08:30:53.226Z,96625.31
2022-12-22T08:33:21.631Z,96619.75
2022-12-22T08:35:51.652Z,96612.41
2022-12-22T08:38:19.920Z,96616.56
2022-12-22T08:40:50.247Z,96618.69
2022-12-22T08:43:20.191Z,96608.44
2022-12-22T08:45:48.966Z,96609.50
2022-12-22T08:48:17.223Z,96607.50
2022-12-22T08:50:45.685Z,96606.78
2022-12-22T08:53:45.233Z,96605.22
2022-12-22T08:56:03.994Z,96605.97
2022-12-22T08:58:32.247Z,96609.19
2022-12-22T09:01:00.943Z,96618.84
2022-12-22T09:03:29.420Z,96620.63
2022-12-22T09:06:02.574Z,96616.81
2022-12-22T09:08:32.235Z,96613.31
2022-12-22T09:11:04.793Z,96612.16
2022-12-22T09:13:33.118Z,96610.84
2022-12-22T09:16:01.844Z,96610.25
2022-12-22T09:18:30.084Z,96612.94
2022-12-22T09:20:59.003Z,96620.47
2022-12-22T09:23:27.313Z,96616.53
2022-12-22T09:25:57.420Z,96617.72
2022-12-22T09:28:25.607Z,96617.25
2022-12-22T09:30:56.278Z,96606.28
2022-12-22T09:33:26.380Z,96613.25
2022-12-22T09:35:54.966Z,96617.03
2022-12-22T09:38:23.234Z,96611.38
2022-12-22T09:40:51.888Z,96608.28
2022-12-22T09:43:29.841Z,96608.84
2022-12-22T09:45:59.615Z,96615.94
2022-12-22T09:48:35.392Z,96607.06
2022-12-22T09:51:05.144Z,96612.66
2022-12-22T09:53:34.239Z,96601.50
2022-12-22T09:56:03.453Z,96599.44
2022-12-22T09:58:35.958Z,96589.44
2022-12-22T10:01:28.920Z,96590.38
2022-12-22T10:04:06.024Z,96595.22
2022-12-22T10:06:39.653Z,96594.97
2022-12-22T10:09:46.337Z,96587.69
2022-12-22T10:12:08.334Z,96582.31
2022-12-22T10:14:40.616Z,96590.84
2022-12-22T10:17:24.681Z,96585.94
2022-12-22T10:19:55.594Z,96580.66
2022-12-22T10:22:32.448Z,96574.38
2022-12-22T10:25:03.633Z,96588.44
2022-12-22T10:27:37.225Z,96589.44
2022-12-22T10:30:22.050Z,96590.69
2022-12-22T10:33:04.115Z,96585.16
2022-12-22T10:35:46.453Z,96593.34
2022-12-22T10:38:21.800Z,96587.41
2022-12-22T10:40:58.354Z,96584.06
2022-12-22T10:43:32.185Z,96594.66
2022-12-22T10:46:04.066Z,96588.13
2022-12-22T10:48:35.198Z,96587.66
2022-12-22T10:51:05.820Z,96571.44
2022-12-22T10:53:51.048Z,96563.22
2022-12-22T10:56:25.753Z,96576.72
2022-12-22T10:58:56.687Z,96572.00
2022-12-22T11:01:30.762Z,96570.88
2022-12-22T11:04:10.144Z,96565.03
2022-12-22T11:06:38.966Z,96563.38
2022-12-22T11:09:31.843Z,96550.47
2022-12-22T11:12:04.201Z,96556.16
2022-12-22T11:14:42.352Z,96556.66
2022-12-22T11:17:19.554Z,96554.84
2022-12-22T11:20:04.924Z,96548.91
2022-12-22T11:22:40.510Z,96535.66
2022-12-22T11:25:23.762Z,96525.47
2022-12-22T11:28:03.877Z,96521.28
2022-12-22T11:30:41.392Z,96516.06
2022-12-22T11:33:27.415Z,96520.59
2022-12-22T11:36:00.350Z,96513.78
2022-12-22T11:38:45.840Z,96513.75
2022-12-22T11:41:24.159Z,96512.03
2022-12-22T11:44:07.181Z,96508.69
2022-12-22T11:46:42.210Z,96509.16
2022-12-22T11:49:33.644Z,96507.56
2022-12-22T11:52:14.865Z,96505.31
2022-12-22T11:55:01.507Z,96507.59
2022-12-22T11:57:39.295Z,96504.06
2022-12-22T12:00:12.010Z,96512.91
2022-12-22T12:03:12.767Z,96501.50
2022-12-22T12:06:35.124Z,96503.78
2022-12-22T12:09:29.078Z,96498.78
2022-12-22T12:12:04.079Z,96506.41
2022-12-22T12:14:40.590Z,96515.16
2022-12-22T12:17:20.154Z,96504.19
2022-12-22T12:20:22.707Z,96500.56
2022-12-22T12:23:07.832Z,96504.91
2022-12-22T12:25:49.545Z,96494.84
2022-12-22T12:28:25.286Z,96508.91
2022-12-22T12:30:57.756Z,96495.25
2022-12-22T12:33:43.747Z,96502.63
2022-12-22T12:36:19.718Z,96502.84
2022-12-22T12:39:08.526Z,96502.56
2022-12-22T12:41:48.531Z,96503.44
2022-12-22T12:44:20.883Z,96511.31
2022-12-22T12:47:04.911Z,96504.75
2022-12-22T12:49:59.268Z,96507.72
2022-12-22T12:53:16.897Z,96510.72
2022-12-22T12:56:12.564Z,96501.97
2022-12-22T12:58:54.096Z,96508.94
2022-12-22T13:02:00.308Z,96511.38
2022-12-22T13:05:14.117Z,96521.09
2022-12-22T13:08:09.268Z,96519.22
2022-12-22T13:10:40.642Z,96518.63
2022-12-22T13:13:48.158Z,96522.38
2022-12-22T13:16:35.936Z,96520.97
2022-12-22T13:19:22.485Z,96537.28
2022-12-22T13:21:53.943Z,96534.72
2022-12-22T13:27:14.986Z,96537.28
2022-12-22T13:29:45.726Z,96539.66
2022-12-22T13:30:51.054Z,96540.91
2022-12-22T13:32:24.128Z,96544.72
2022-12-22T13:37:49.938Z,96548.72
2022-12-22T13:40:21.176Z,96559.31
2022-12-22T13:42:52.341Z,96558.78
2022-12-22T13:45:37.359Z,96564.28
2022-12-22T13:48:14.039Z,96568.19
2022-12-22T13:50:46.807Z,96569.31
2022-12-22T13:56:24.064Z,96582.13
2022-12-22T13:58:57.354Z,96585.41
2022-12-22T14:01:26.892Z,96590.44
2022-12-22T14:04:08.437Z,96595.81
2022-12-22T14:06:39.172Z,96593.09
2022-12-22T14:09:18.576Z,96608.19
2022-12-22T14:11:52.973Z,96612.53
2022-12-22T14:14:26.009Z,96612.75
2022-12-22T14:16:57.155Z,96619.00
2022-12-22T14:19:29.472Z,96627.22
2022-12-22T14:22:10.773Z,96627.50
2022-12-22T14:24:46.277Z,96626.94
2022-12-22T14:27:20.949Z,96639.69
2022-12-22T14:29:49.596Z,96643.25
2022-12-22T14:32:37.231Z,96639.28
2022-12-22T14:35:25.767Z,96646.28
2022-12-22T14:37:57.265Z,96638.47
2022-12-22T14:40:34.226Z,96653.13
2022-12-22T14:43:06.014Z,96659.84
2022-12-22T14:45:34.777Z,96667.78
2022-12-22T14:48:03.662Z,96667.22
2022-12-22T14:50:33.495Z,96664.19
2022-12-22T14:53:03.912Z,96681.44
2022-12-22T14:55:34.850Z,96672.53
2022-12-22T14:58:07.097Z,96680.78
2022-12-22T15:00:38.100Z,96690.84
2022-12-22T15:03:31.292Z,96698.50
2022-12-22T15:06:24.679Z,96703.72
2022-12-22T15:08:54.217Z,96707.47
2022-12-22T15:11:25.715Z,96709.38
2022-12-22T15:13:54.771Z,96721.72
2022-12-22T15:16:25.115Z,96710.81
2022-12-22T15:18:54.616Z,96728.47
2022-12-22T15:21:24.348Z,96737.03
2022-12-22T15:23:52.652Z,96731.13
2022-12-22T15:26:21.213Z,96748.25
2022-12-22T15:28:50.555Z,96757.13
2022-12-22T15:31:19.595Z,96752.88
2022-12-22T15:33:48.300Z,96753.34
2022-12-22T15:36:16.662Z,96761.91
2022-12-22T15:38:48.143Z,96769.38
2022-12-22T15:41:16.344Z,96773.94
2022-12-22T15:44:00.005Z,96774.09
2022-12-22T15:46:31.397Z,96777.91
2022-12-22T15:49:00.143Z,96793.22
2022-12-22T15:51:30.777Z,96781.34
2022-12-22T15:54:01.528Z,96787.44
2022-12-22T15:56:33.629Z,96792.75
2022-12-22T15:59:03.499Z,96797.38
2022-12-22T16:01:31.922Z,96812.50
2022-12-22T16:04:00.752Z,96811.03
2022-12-22T16:06:29.060Z,96802.91
2022-12-22T16:08:57.565Z,96816.84
2022-12-22T16:11:27.304Z,96808.72
2022-12-22T16:13:55.528Z,96818.06
2022-12-22T16:16:24.095Z,96828.13
2022-12-22T16:18:52.639Z,96827.19
2022-12-22T16:21:28.421Z,96828.94
2022-12-22T16:23:57.114Z,96829.06
2022-12-22T16:26:26.915Z,96825.28
2022-12-22T16:28:58.334Z,96825.41
2022-12-22T16:31:27.500Z,96828.63
2022-12-22T16:33:56.269Z,96832.31
2022-12-22T16:36:24.451Z,96835.75
2022-12-22T16:38:53.203Z,96833.28
2022-12-22T16:41:25.307Z,96825.63
2022-12-22T16:44:03.813Z,96820.69
2022-12-22T16:46:38.320Z,96819.75
2022-12-22T16:49:09.891Z,96833.75
2022-12-22T16:51:46.236Z,96833.47
2022-12-22T16:54:15.611Z,96838.84
2022-12-22T16:56:47.397Z,96841.88
2022-12-22T16:59:17.632Z,96840.28
2022-12-22T17:01:50.918Z,96851.63
2022-12-22T17:04:22.816Z,96858.94
2022-12-22T17:06:52.513Z,96867.53
2022-12-22T17:09:24.370Z,96863.09
2022-12-22T17:11:54.706Z,96865.47
2022-12-22T17:14:30.486Z,96859.56
2022-12-22T17:16:59.636Z,96849.88
2022-12-22T17:19:27.986Z,96873.63
2022-12-22T17:21:57.626Z,96876.16
2022-12-22T17:24:28.743Z,96864.38
2022-12-22T17:26:59.779Z,96862.78
2022-12-22T17:29:30.087Z,96860.34
2022-12-22T17:31:58.625Z,96868.47
2022-12-22T17:34:28.019Z,96867.06
2022-12-22T17:36:59.146Z,96862.59
2022-12-22T17:39:27.455Z,96859.44
2022-12-22T17:41:57.369Z,96860.56
2022-12-22T17:44:27.957Z,96867.88
2022-12-22T17:46:57.783Z,96870.59
2022-12-22T17:49:25.968Z,96871.38
2022-12-22T17:51:54.432Z,96862.59
2022-12-22T17:54:25.345Z,96863.56
2022-12-22T17:56:55.829Z,96861.50
2022-12-22T17:59:24.400Z,96861.81
2022-12-22T18:01:53.251Z,96852.41
2022-12-22T18:04:22.874Z,96854.78
2022-12-22T18:06:51.369Z,96851.59
2022-12-22T18:09:22.621Z,96856.06
2022-12-22T18:11:51.172Z,96856.41
2022-12-22T18:14:20.695Z,96852.41
2022-12-22T18:16:49.178Z,96858.94
2022-12-22T18:19:17.477Z,96858.31
2022-12-22T18:21:47.319Z,96858.31
2022-12-22T18:24:17.663Z,96855.75
2022-12-22T18:26:47.448Z,96857.03
2022-12-22T18:29:16.064Z,96849.06
2022-12-22T18:31:45.515Z,96846.84
2022-12-22T18:34:13.861Z,96846.38
2022-12-22T18:36:45.844Z,96839.50
2022-12-22T18:39:19.088Z,96830.91
2022-12-22T18:41:48.203Z,96833.94
2022-12-22T18:44:18.065Z,96830.59
2022-12-22T18:46:46.820Z,96836.94
2022-12-22T18:49:15.097Z,96838.38
2022-12-22T18:51:44.836Z,96831.84
2022-12-22T18:54:23.936Z,96830.59
2022-12-22T18:56:52.625Z,96823.41
2022-12-22T18:59:29.109Z,96834.25
2022-12-22T19:02:03.662Z,96835.38
2022-12-22T19:04:31.963Z,96827.56
2022-12-22T19:07:00.235Z,96826.59
2022-12-22T19:09:29.755Z,96822.44
2022-12-22T19:11:58.197Z,96818.44
2022-12-22T19:14:26.290Z,96819.53
2022-12-22T19:16:56.203Z,96817.16
2022-12-22T19:19:24.425Z,96812.22
2022-12-22T19:21:54.143Z,96810.31
2022-12-22T19:24:22.231Z,96812.56
2022-12-22T19:26:52.119Z,96808.88
2022-12-22T19:29:20.718Z,96815.59
2022-12-22T19:31:49.412Z,96812.88
2022-12-22T19:34:21.383Z,96808.88
2022-12-22T19:36:50.206Z,96807.44
2022-12-22T19:39:18.212Z,96803.59
2022-12-22T19:41:49.022Z,96805.56
2022-12-22T19:44:22.252Z,96803.66
2022-12-22T19:46:51.869Z,96799.03
2022-12-22T19:49:21.996Z,96800.31
2022-12-22T19:51:50.535Z,96795.53
2022-12-22T19:54:19.715Z,96798.09
2022-12-22T19:56:51.419Z,96793.97
2022-12-22T19:59:29.788Z,96802.38
2022-12-22T20:02:02.907Z,96792.16
2022-12-22T20:04:33.977Z,96794.09
2022-12-22T20:07:02.759Z,96787.09
2022-12-22T20:09:31.055Z,96782.34
2022-12-22T20:11:59.724Z,96775.34
2022-12-22T20:14:29.226Z,96783.28
2022-12-22T20:16:57.685Z,96782.44
2022-12-22T20:19:26.018Z,96767.19
2022-12-22T20:21:54.485Z,96764.97
2022-12-22T20:24:23.865Z,96763.50
2022-12-22T20:26:54.813Z,96753.00
2022-12-22T20:29:25.222Z,96750.72
2022-12-22T20:31:55.738Z,96744.38
2022-12-22T20:34:24.079Z,96739.78
2022-12-22T20:36:52.563Z,96731.50
2022-12-22T20:39:21.938Z,96731.78
2022-12-22T20:41:53.678Z,96742.63
2022-12-22T20:44:24.015Z,96740.53
2022-12-22T20:46:55.687Z,96728.88
2022-12-22T20:49:24.689Z,96731.41
2022-12-22T20:51:53.248Z,96730.66
2022-12-22T20:54:21.839Z,96726.53
2022-12-22T20:56:51.339Z,96728.63
2022-12-22T20:59:22.436Z,96733.41
2022-12-22T21:01:53.097Z,96721.75
2022-12-22T21:04:22.924Z,96718.06
2022-12-22T21:06:54.367Z,96736.25
2022-12-22T21:09:23.108Z,96727.19
2022-12-22T21:11:51.583Z,96734.94
2022-12-22T21:14:20.265Z,96724.94
2022-12-22T21:16:49.828Z,96727.75
2022-12-22T21:19:21.660Z,96728.22
2022-12-22T21:21:51.278Z,96721.88
2022-12-22T21:24:20.244Z,96715.63
2022-12-22T21:26:51.772Z,96713.22
2022-12-22T21:29:23.397Z,96700.66
2022-12-22T21:31:52.032Z,96694.63
2022-12-22T21:34:20.616Z,96696.41
2022-12-22T21:36:56.978Z,96686.19
2022-12-22T21:39:32.708Z,96684.81
2022-12-22T21:42:05.432Z,96691.66
2022-12-22T21:44:35.582Z,96689.91
2022-12-22T21:47:04.018Z,96688.19
2022-12-22T21:49:34.547Z,96652.56
2022-12-22T21:52:04.296Z,96686.13
2022-12-22T21:54:34.167Z,96688.66
2022-12-22T21:57:03.037Z,96681.94
2022-12-22T21:59:31.244Z,96675.88
2022-12-22T22:02:00.098Z,96658.09
2022-12-22T22:04:28.473Z,96665.91
2022-12-22T22:06:57.968Z,96678.44
2022-12-22T22:09:28.034Z,96660.50
2022-12-22T22:12:13.977Z,96660.00
2022-12-22T22:14:42.665Z,96661.38
2022-12-22T22:17:12.155Z,96666.03
2022-12-22T22:19:40.338Z,96662.00
2022-12-22T22:22:09.239Z,96655.97
2022-12-22T22:24:38.940Z,96651.56
2022-12-22T22:27:07.411Z,96651.03
2022-12-22T22:29:36.651Z,96644.56
2022-12-22T22:32:05.197Z,96634.22
2022-12-22T22:34:33.482Z,96632.16
2022-12-22T22:37:02.064Z,96629.28
2022-12-22T22:39:30.904Z,96624.59
2022-12-22T22:42:01.300Z,96615.41
2022-12-22T22:44:30.482Z,96619.50
2022-12-22T22:46:58.728Z,96620.13
2022-12-22T22:49:36.576Z,96622.81
2022-12-22T22:52:05.173Z,96614.09
2022-12-22T22:54:34.240Z,96609.69
2022-12-22T22:57:04.416Z,96615.28
2022-12-22T22:59:33.213Z,96605.09
2022-12-22T23:02:01.411Z,96603.00
2022-12-22T23:04:31.234Z,96596.16
2022-12-22T23:07:00.036Z,96589.94
2022-12-22T23:09:28.221Z,96596.25
2022-12-22T23:11:58.130Z,96589.28
2022-12-22T23:14:27.846Z,96588.84
2022-12-22T23:16:56.063Z,96586.84
2022-12-22T23:19:25.855Z,96582.91
2022-12-22T23:21:54.233Z,96583.84
2022-12-22T23:24:22.711Z,96586.13
2022-12-22T23:26:51.776Z,96583.84
2022-12-22T23:29:20.086Z,96582.16
2022-12-22T23:31:50.340Z,96568.66
2022-12-22T23:34:18.746Z,96573.66
2022-12-22T23:36:47.393Z,96573.41
2022-12-22T23:39:15.575Z,96567.34
2022-12-22T23:41:43.882Z,96562.22
2022-12-22T23:44:12.211Z,96566.19
2022-12-22T23:46:41.981Z,96566.25
2022-12-22T23:49:14.261Z,96561.91
2022-12-22T23:51:43.889Z,96566.53
2022-12-22T23:54:11.963Z,96563.94
2022-12-22T23:56:40.105Z,96556.81
2022-12-22T23:59:08.784Z,96562.06
